Time;durP1;ratioP1;P1;durP2;ratioP2;P2;SDS_P1;SDS_P2;PMS_P1;PMS_P2;Temp;Humidity;BMP_temperature;BMP_pressure;BME280_temperature;BME280_humidity;BME280_pressure;Samples;Min_cycle;Max_cycle;Signal;HPM_P1;HPM_P2
2024/01/03 00:01:44;;;;;;;0.10;0.10;;;;;;;;;;5112578;28;20247;-79
2024/01/03 00:04:15;;;;;;;0.10;0.10;;;;;;;;;;5123637;28;20241;-78
2024/01/03 00:06:42;;;;;;;0.10;0.10;;;;;;;;;;5112546;28;20256;-79
2024/01/03 00:09:09;;;;;;;0.20;0.20;;;;;;;;;;5124030;28;20202;-78
2024/01/03 00:11:37;;;;;;;0.20;0.20;;;;;;;;;;5112768;28;20240;-79
2024/01/03 00:14:07;;;;;;;0.10;0.10;;;;;;;;;;5123916;28;20557;-79
2024/01/03 00:16:34;;;;;;;0.10;0.10;;;;;;;;;;5112473;28;20238;-79
2024/01/03 00:19:02;;;;;;;0.10;0.10;;;;;;;;;;5123841;28;20240;-79
2024/01/03 00:21:29;;;;;;;0.10;0.10;;;;;;;;;;5112290;28;20248;-78
2024/01/03 00:23:56;;;;;;;0.10;0.10;;;;;;;;;;5123619;28;20202;-79
2024/01/03 00:26:23;;;;;;;0.10;0.10;;;;;;;;;;5112402;28;20250;-78
2024/01/03 00:28:51;;;;;;;0.20;0.20;;;;;;;;;;5123679;28;20450;-79
2024/01/03 00:31:29;;;;;;;0.10;0.10;;;;;;;;;;5112577;28;20250;-78
2024/01/03 00:33:56;;;;;;;0.20;0.20;;;;;;;;;;5123671;28;20201;-79
2024/01/03 00:36:23;;;;;;;0.10;0.10;;;;;;;;;;5114712;28;20257;-78
2024/01/03 00:38:49;;;;;;;0.10;0.10;;;;;;;;;;5127563;28;20202;-79
2024/01/03 00:41:16;;;;;;;0.10;0.10;;;;;;;;;;5116147;28;20238;-79
2024/01/03 00:43:42;;;;;;;0.17;0.17;;;;;;;;;;5127155;28;20532;-78
2024/01/03 00:46:10;;;;;;;0.10;0.10;;;;;;;;;;5116534;28;20260;-78
2024/01/03 00:48:36;;;;;;;0.20;0.20;;;;;;;;;;5127245;28;20206;-78
2024/01/03 00:51:04;;;;;;;0.10;0.10;;;;;;;;;;5116208;28;20265;-77
2024/01/03 00:53:31;;;;;;;0.10;0.10;;;;;;;;;;5126806;28;20229;-79
2024/01/03 00:55:57;;;;;;;0.17;0.17;;;;;;;;;;5116167;28;20256;-78
2024/01/03 00:58:24;;;;;;;0.10;0.10;;;;;;;;;;5126834;28;20204;-78
2024/01/03 01:00:50;;;;;;;0.20;0.20;;;;;;;;;;5116113;28;20244;-78
2024/01/03 01:03:18;;;;;;;0.10;0.10;;;;;;;;;;5126470;28;20218;-79
2024/01/03 01:05:45;;;;;;;0.10;0.10;;;;;;;;;;5116022;28;20251;-78
2024/01/03 01:08:12;;;;;;;0.20;0.20;;;;;;;;;;5126219;28;20258;-78
2024/01/03 01:10:38;;;;;;;0.10;0.10;;;;;;;;;;5116129;28;20258;-78
2024/01/03 01:13:05;;;;;;;0.10;0.10;;;;;;;;;;5126511;28;20205;-79
2024/01/03 01:15:31;;;;;;;0.10;0.10;;;;;;;;;;5116036;28;20272;-79
2024/01/03 01:17:57;;;;;;;0.10;0.10;;;;;;;;;;5126087;28;20202;-80
2024/01/03 01:20:25;;;;;;;0.20;0.20;;;;;;;;;;5115897;28;20247;-79
2024/01/03 01:22:51;;;;;;;0.10;0.10;;;;;;;;;;5126170;28;20377;-79
2024/01/03 01:25:18;;;;;;;0.10;0.10;;;;;;;;;;5115940;28;20426;-78
2024/01/03 01:27:44;;;;;;;0.13;0.13;;;;;;;;;;5125896;28;20382;-79
2024/01/03 01:30:11;;;;;;;0.20;0.20;;;;;;;;;;5116290;28;20225;-78
2024/01/03 01:32:37;;;;;;;0.10;0.10;;;;;;;;;;5125803;28;20211;-78
2024/01/03 01:35:04;;;;;;;0.10;0.10;;;;;;;;;;5126606;28;20236;-79
2024/01/03 01:37:32;;;;;;;0.10;0.10;;;;;;;;;;5114895;28;20240;-79
2024/01/03 01:39:58;;;;;;;0.10;0.10;;;;;;;;;;5126335;28;20444;-79
2024/01/03 01:42:25;;;;;;;0.13;0.13;;;;;;;;;;5114945;28;20494;-78
2024/01/03 01:44:51;;;;;;;0.10;0.10;;;;;;;;;;5126458;28;20209;-79
2024/01/03 01:47:18;;;;;;;0.10;0.10;;;;;;;;;;5114499;28;20268;-78
2024/01/03 01:49:44;;;;;;;0.10;0.10;;;;;;;;;;5126351;28;20209;-79
2024/01/03 01:52:11;;;;;;;0.10;0.10;;;;;;;;;;5114570;28;20456;-78
2024/01/03 01:54:39;;;;;;;0.10;0.10;;;;;;;;;;5126293;28;20202;-79
2024/01/03 01:57:06;;;;;;;0.10;0.10;;;;;;;;;;5114555;28;20446;-77
2024/01/03 01:59:32;;;;;;;0.10;0.10;;;;;;;;;;5126370;28;20208;-77
2024/01/03 02:01:59;;;;;;;0.10;0.10;;;;;;;;;;5114410;28;20245;-76
2024/01/03 02:04:25;;;;;;;0.10;0.10;;;;;;;;;;5125896;28;20265;-78
2024/01/03 02:06:52;;;;;;;0.13;0.13;;;;;;;;;;5114373;28;20239;-78
2024/01/03 02:09:18;;;;;;;0.10;0.10;;;;;;;;;;5126075;28;20212;-77
2024/01/03 02:11:47;;;;;;;0.10;0.10;;;;;;;;;;5114274;28;20275;-78
2024/01/03 02:14:14;;;;;;;0.20;0.20;;;;;;;;;;5125595;28;20263;-78
2024/01/03 02:16:40;;;;;;;0.10;0.10;;;;;;;;;;5114250;28;20252;-78
2024/01/03 02:19:07;;;;;;;0.10;0.10;;;;;;;;;;5125715;28;20273;-77
2024/01/03 02:21:34;;;;;;;0.20;0.20;;;;;;;;;;5114046;28;20241;-78
2024/01/03 02:24:01;;;;;;;0.10;0.10;;;;;;;;;;5125532;28;20215;-77
2024/01/03 02:26:27;;;;;;;0.10;0.10;;;;;;;;;;5114196;28;20569;-77
2024/01/03 02:28:54;;;;;;;0.10;0.10;;;;;;;;;;5125395;28;20202;-78
2024/01/03 02:31:20;;;;;;;0.10;0.10;;;;;;;;;;5114065;28;20506;-78
2024/01/03 02:33:47;;;;;;;0.10;0.10;;;;;;;;;;5125221;28;20203;-78
2024/01/03 02:36:13;;;;;;;0.10;0.10;;;;;;;;;;5114160;28;20241;-77
2024/01/03 02:38:43;;;;;;;0.10;0.10;;;;;;;;;;5124820;28;20209;-78
2024/01/03 02:41:09;;;;;;;0.20;0.20;;;;;;;;;;5114105;28;20256;-78
2024/01/03 02:43:35;;;;;;;0.10;0.10;;;;;;;;;;5124819;28;20231;-78
2024/01/03 02:46:02;;;;;;;0.10;0.10;;;;;;;;;;5114072;28;20316;-78
2024/01/03 02:48:28;;;;;;;0.10;0.10;;;;;;;;;;5124355;28;20246;-77
2024/01/03 02:50:54;;;;;;;0.10;0.10;;;;;;;;;;5114160;28;20301;-78
2024/01/03 02:53:21;;;;;;;0.10;0.10;;;;;;;;;;5124430;28;20233;-77
2024/01/03 02:55:48;;;;;;;0.20;0.20;;;;;;;;;;5113998;28;20306;-78
2024/01/03 02:58:15;;;;;;;0.10;0.10;;;;;;;;;;5123737;28;20445;-78
2024/01/03 03:00:41;;;;;;;0.10;0.10;;;;;;;;;;5114151;28;20242;-78
2024/01/03 03:03:07;;;;;;;0.10;0.10;;;;;;;;;;5123911;28;20214;-77
2024/01/03 03:05:33;;;;;;;0.10;0.10;;;;;;;;;;5113855;28;20241;-77
2024/01/03 03:07:59;;;;;;;0.10;0.10;;;;;;;;;;5123977;28;20201;-78
2024/01/03 03:10:26;;;;;;;0.10;0.10;;;;;;;;;;5114226;28;20393;-78
2024/01/03 03:12:53;;;;;;;0.10;0.10;;;;;;;;;;5123655;28;20239;-78
2024/01/03 03:15:20;;;;;;;0.17;0.17;;;;;;;;;;5114174;28;20396;-77
2024/01/03 03:17:46;;;;;;;0.10;0.10;;;;;;;;;;5123821;28;20208;-77
2024/01/03 03:20:13;;;;;;;0.10;0.10;;;;;;;;;;5113837;28;20202;-77
2024/01/03 03:22:39;;;;;;;0.20;0.20;;;;;;;;;;5123415;28;20202;-77
2024/01/03 03:25:06;;;;;;;0.10;0.10;;;;;;;;;;5124775;28;20273;-77
2024/01/03 03:27:32;;;;;;;0.10;0.10;;;;;;;;;;5112931;28;20432;-78
2024/01/03 03:30:01;;;;;;;0.10;0.10;;;;;;;;;;5124506;28;20206;-78
2024/01/03 03:32:27;;;;;;;0.10;0.10;;;;;;;;;;5112660;28;20256;-78
2024/01/03 03:34:54;;;;;;;0.10;0.10;;;;;;;;;;5124352;28;20269;-78
2024/01/03 03:37:20;;;;;;;0.10;0.10;;;;;;;;;;5112570;28;20317;-77
2024/01/03 03:39:47;;;;;;;0.10;0.10;;;;;;;;;;5124303;28;20379;-77
2024/01/03 03:42:13;;;;;;;0.20;0.20;;;;;;;;;;5112518;28;20231;-77
2024/01/03 03:44:40;;;;;;;0.10;0.10;;;;;;;;;;5124566;28;20498;-78
2024/01/03 03:47:08;;;;;;;0.10;0.10;;;;;;;;;;5112440;28;20493;-79
2024/01/03 03:49:34;;;;;;;0.10;0.10;;;;;;;;;;5124337;28;20212;-78
2024/01/03 03:52:01;;;;;;;0.10;0.10;;;;;;;;;;5112830;28;20457;-78
2024/01/03 03:54:27;;;;;;;0.10;0.10;;;;;;;;;;5124161;28;20209;-78
2024/01/03 03:56:53;;;;;;;0.10;0.10;;;;;;;;;;5112483;28;20277;-77
2024/01/03 03:59:20;;;;;;;0.17;0.17;;;;;;;;;;5124133;28;20272;-78
2024/01/03 04:01:49;;;;;;;0.10;0.10;;;;;;;;;;5112523;28;20271;-77
2024/01/03 04:04:18;;;;;;;0.10;0.10;;;;;;;;;;5123662;28;20549;-77
2024/01/03 04:06:44;;;;;;;0.10;0.10;;;;;;;;;;5112450;28;20238;-77
2024/01/03 04:09:11;;;;;;;0.10;0.10;;;;;;;;;;5124014;28;20236;-78
2024/01/03 04:11:40;;;;;;;0.10;0.10;;;;;;;;;;5115400;28;20279;-77
2024/01/03 04:14:07;;;;;;;0.10;0.10;;;;;;;;;;5128183;28;20517;-77
2024/01/03 04:16:33;;;;;;;0.10;0.10;;;;;;;;;;5116684;28;20238;-78
2024/01/03 04:19:00;;;;;;;0.10;0.10;;;;;;;;;;5128019;28;20225;-77
2024/01/03 04:21:28;;;;;;;0.10;0.10;;;;;;;;;;5116648;28;20250;-77
2024/01/03 04:23:55;;;;;;;0.10;0.10;;;;;;;;;;5127788;28;20212;-77
2024/01/03 04:26:21;;;;;;;0.10;0.10;;;;;;;;;;5116723;28;20301;-78
2024/01/03 04:28:48;;;;;;;0.10;0.10;;;;;;;;;;5127706;28;20449;-78
2024/01/03 04:31:14;;;;;;;0.10;0.10;;;;;;;;;;5116742;28;20503;-78
2024/01/03 04:33:40;;;;;;;0.10;0.10;;;;;;;;;;5127580;28;20238;-78
2024/01/03 04:36:07;;;;;;;0.10;0.10;;;;;;;;;;5116564;28;20264;-77
2024/01/03 04:38:35;;;;;;;0.10;0.10;;;;;;;;;;5127232;28;20229;-78
2024/01/03 04:41:01;;;;;;;0.10;0.10;;;;;;;;;;5116408;28;20624;-77
2024/01/03 04:43:28;;;;;;;0.10;0.10;;;;;;;;;;5127206;28;20279;-78
2024/01/03 04:45:54;;;;;;;0.10;0.10;;;;;;;;;;5116876;28;20483;-78
2024/01/03 04:48:21;;;;;;;0.20;0.20;;;;;;;;;;5126694;28;20265;-77
2024/01/03 04:50:47;;;;;;;0.20;0.20;;;;;;;;;;5116764;28;20459;-78
2024/01/03 04:53:14;;;;;;;0.10;0.10;;;;;;;;;;5126454;28;20221;-77
2024/01/03 04:55:42;;;;;;;0.10;0.10;;;;;;;;;;5116322;28;20242;-78
2024/01/03 04:58:08;;;;;;;0.10;0.10;;;;;;;;;;5126473;28;20206;-77
2024/01/03 05:00:36;;;;;;;0.10;0.10;;;;;;;;;;5116491;28;20237;-78
2024/01/03 05:03:03;;;;;;;0.10;0.10;;;;;;;;;;5125564;28;20229;-78
2024/01/03 05:05:29;;;;;;;0.10;0.10;;;;;;;;;;5115141;28;20295;-77
2024/01/03 05:07:56;;;;;;;0.10;0.10;;;;;;;;;;5124939;28;20202;-77
2024/01/03 05:10:22;;;;;;;0.10;0.10;;;;;;;;;;5115479;28;20435;-78
2024/01/03 05:12:50;;;;;;;0.20;0.20;;;;;;;;;;5125031;28;20443;-77
2024/01/03 05:15:17;;;;;;;0.10;0.10;;;;;;;;;;5115060;28;20393;-77
2024/01/03 05:17:44;;;;;;;0.10;0.10;;;;;;;;;;5124748;28;20208;-77
2024/01/03 05:20:11;;;;;;;0.10;0.10;;;;;;;;;;5115136;28;20497;-77
2024/01/03 05:22:37;;;;;;;0.20;0.20;;;;;;;;;;5124048;28;20258;-77
2024/01/03 05:25:06;;;;;;;0.20;0.20;;;;;;;;;;5125666;28;20235;-78
2024/01/03 05:27:32;;;;;;;0.10;0.10;;;;;;;;;;5114002;28;20436;-77
2024/01/03 05:30:00;;;;;;;0.10;0.10;;;;;;;;;;5125673;28;20238;-77
2024/01/03 05:32:26;;;;;;;0.20;0.20;;;;;;;;;;5113782;28;20505;-77
2024/01/03 05:34:53;;;;;;;0.10;0.10;;;;;;;;;;5125845;28;20233;-77
2024/01/03 05:37:19;;;;;;;0.13;0.13;;;;;;;;;;5113684;28;20274;-77
2024/01/03 05:39:46;;;;;;;0.20;0.20;;;;;;;;;;5125426;28;20235;-77
2024/01/03 05:42:12;;;;;;;0.13;0.13;;;;;;;;;;5113363;28;20237;-77
2024/01/03 05:44:39;;;;;;;0.20;0.20;;;;;;;;;;5125663;28;20269;-77
2024/01/03 05:47:07;;;;;;;0.10;0.10;;;;;;;;;;5113640;28;20237;-77
2024/01/03 05:49:34;;;;;;;0.10;0.10;;;;;;;;;;5125482;28;20394;-77
2024/01/03 05:52:01;;;;;;;0.20;0.20;;;;;;;;;;5113516;28;20300;-77
2024/01/03 05:54:27;;;;;;;0.20;0.20;;;;;;;;;;5125270;28;20294;-77
2024/01/03 05:56:54;;;;;;;0.10;0.10;;;;;;;;;;5113476;28;20238;-77
2024/01/03 05:59:21;;;;;;;0.20;0.20;;;;;;;;;;5125047;28;20274;-76
2024/01/03 06:01:47;;;;;;;0.10;0.10;;;;;;;;;;5113603;28;20239;-77
2024/01/03 06:04:15;;;;;;;0.20;0.20;;;;;;;;;;5085223;28;1128382;-76
2024/01/03 06:06:41;;;;;;;0.10;0.10;;;;;;;;;;5114468;28;20240;-77
2024/01/03 06:09:08;;;;;;;0.10;0.10;;;;;;;;;;5125948;28;20206;-77
2024/01/03 06:11:34;;;;;;;0.20;0.20;;;;;;;;;;5114538;28;20426;-78
2024/01/03 06:14:00;;;;;;;0.20;0.20;;;;;;;;;;5125710;28;20206;-77
2024/01/03 06:16:27;;;;;;;0.10;0.10;;;;;;;;;;5114580;28;20505;-77
2024/01/03 06:18:53;;;;;;;0.20;0.20;;;;;;;;;;5125356;28;20247;-77
2024/01/03 06:21:21;;;;;;;0.20;0.20;;;;;;;;;;5114274;28;20283;-77
2024/01/03 06:23:47;;;;;;;0.10;0.10;;;;;;;;;;5125271;28;20201;-77
2024/01/03 06:26:14;;;;;;;0.20;0.20;;;;;;;;;;5114696;28;20308;-77
2024/01/03 06:28:40;;;;;;;0.10;0.10;;;;;;;;;;5125053;28;20229;-77
2024/01/03 06:31:07;;;;;;;0.20;0.20;;;;;;;;;;5114342;28;20309;-77
2024/01/03 06:33:33;;;;;;;0.13;0.13;;;;;;;;;;5124164;28;20426;-77
2024/01/03 06:35:59;;;;;;;0.10;0.10;;;;;;;;;;5114242;28;20237;-77
2024/01/03 06:38:27;;;;;;;0.10;0.10;;;;;;;;;;5124784;28;20205;-77
2024/01/03 06:40:54;;;;;;;0.17;0.17;;;;;;;;;;5114353;28;20294;-77
2024/01/03 06:43:20;;;;;;;0.20;0.20;;;;;;;;;;5124399;28;20225;-77
2024/01/03 06:45:47;;;;;;;0.10;0.10;;;;;;;;;;5114514;28;20240;-77
2024/01/03 06:48:13;;;;;;;0.10;0.10;;;;;;;;;;5124378;28;20210;-76
2024/01/03 06:50:39;;;;;;;0.20;0.20;;;;;;;;;;5114315;28;20240;-77
2024/01/03 06:53:06;;;;;;;0.10;0.10;;;;;;;;;;5124334;28;20389;-77
2024/01/03 06:55:34;;;;;;;0.10;0.10;;;;;;;;;;5114378;28;20250;-77
2024/01/03 06:58:00;;;;;;;0.10;0.10;;;;;;;;;;5124228;28;20278;-77
2024/01/03 07:00:26;;;;;;;0.10;0.10;;;;;;;;;;5114453;28;20238;-77
2024/01/03 07:02:53;;;;;;;0.20;0.20;;;;;;;;;;5123815;28;20238;-77
2024/01/03 07:05:19;;;;;;;0.10;0.10;;;;;;;;;;5114403;28;20253;-77
2024/01/03 07:07:46;;;;;;;0.10;0.10;;;;;;;;;;5123737;28;20210;-76
2024/01/03 07:10:12;;;;;;;0.10;0.10;;;;;;;;;;5114393;28;20216;-77
2024/01/03 07:12:40;;;;;;;0.10;0.10;;;;;;;;;;5123873;28;20446;-77
2024/01/03 07:15:06;;;;;;;0.10;0.10;;;;;;;;;;5124985;28;20203;-77
2024/01/03 07:17:33;;;;;;;0.20;0.20;;;;;;;;;;5112947;28;20292;-77
2024/01/03 07:19:59;;;;;;;0.17;0.17;;;;;;;;;;5124586;28;20243;-78
2024/01/03 07:22:26;;;;;;;0.10;0.10;;;;;;;;;;5112709;28;20245;-77
2024/01/03 07:24:52;;;;;;;0.10;0.10;;;;;;;;;;5124754;28;20225;-78
2024/01/03 07:27:18;;;;;;;0.10;0.10;;;;;;;;;;5112846;28;20240;-78
2024/01/03 07:29:48;;;;;;;0.10;0.10;;;;;;;;;;5124634;28;20435;-77
2024/01/03 07:32:14;;;;;;;0.10;0.10;;;;;;;;;;5112732;28;20512;-77
2024/01/03 07:34:41;;;;;;;0.10;0.10;;;;;;;;;;5124616;28;20452;-77
2024/01/03 07:37:07;;;;;;;0.10;0.10;;;;;;;;;;5112634;28;20256;-77
2024/01/03 07:39:33;;;;;;;0.10;0.10;;;;;;;;;;5124458;28;20529;-78
2024/01/03 07:42:00;;;;;;;0.10;0.10;;;;;;;;;;5112495;28;20298;-77
2024/01/03 07:44:26;;;;;;;0.10;0.10;;;;;;;;;;5124339;28;20373;-78
2024/01/03 07:46:54;;;;;;;0.20;0.20;;;;;;;;;;5112919;28;20238;-78
2024/01/03 07:49:20;;;;;;;0.10;0.10;;;;;;;;;;5124224;28;20281;-78
2024/01/03 07:51:49;;;;;;;0.20;0.20;;;;;;;;;;5112812;28;20258;-78
2024/01/03 07:54:15;;;;;;;0.17;0.17;;;;;;;;;;5124095;28;20194;-76
2024/01/03 07:56:42;;;;;;;0.10;0.10;;;;;;;;;;5112723;28;20244;-77
2024/01/03 07:59:08;;;;;;;0.10;0.10;;;;;;;;;;5123959;28;20202;-78
2024/01/03 08:01:35;;;;;;;0.20;0.20;;;;;;;;;;5112744;28;20252;-79
2024/01/03 08:04:04;;;;;;;0.17;0.17;;;;;;;;;;5123350;28;20237;-75
2024/01/03 08:06:31;;;;;;;0.10;0.10;;;;;;;;;;5112725;28;20256;-76
2024/01/03 08:08:57;;;;;;;0.20;0.20;;;;;;;;;;5123784;28;20198;-76
2024/01/03 08:11:23;;;;;;;0.10;0.10;;;;;;;;;;5112883;28;20255;-76
2024/01/03 08:13:50;;;;;;;0.10;0.10;;;;;;;;;;5123678;28;20251;-75
2024/01/03 08:16:16;;;;;;;0.10;0.10;;;;;;;;;;5112626;28;20239;-76
2024/01/03 08:18:44;;;;;;;0.20;0.20;;;;;;;;;;5123559;28;20233;-76
2024/01/03 08:21:12;;;;;;;0.10;0.10;;;;;;;;;;5112784;28;20247;-76
2024/01/03 08:23:38;;;;;;;0.10;0.10;;;;;;;;;;5123512;28;20230;-75
2024/01/03 08:26:08;;;;;;;0.10;0.10;;;;;;;;;;5113040;28;20277;-75
2024/01/03 08:28:36;;;;;;;0.10;0.10;;;;;;;;;;5123228;28;20200;-75
2024/01/03 08:31:02;;;;;;;0.10;0.10;;;;;;;;;;5112840;28;20240;-75
2024/01/03 08:33:29;;;;;;;0.10;0.10;;;;;;;;;;5123274;28;20199;-75
2024/01/03 08:35:55;;;;;;;0.10;0.10;;;;;;;;;;5112996;28;20233;-75
2024/01/03 08:38:23;;;;;;;0.10;0.10;;;;;;;;;;5123042;28;20242;-75
2024/01/03 08:40:50;;;;;;;0.10;0.10;;;;;;;;;;5112821;28;20306;-75
2024/01/03 08:43:16;;;;;;;0.17;0.17;;;;;;;;;;5123049;28;20534;-75
2024/01/03 08:45:43;;;;;;;0.10;0.10;;;;;;;;;;5113096;28;20302;-76
2024/01/03 08:48:09;;;;;;;0.10;0.10;;;;;;;;;;5123120;28;20372;-76
2024/01/03 08:50:35;;;;;;;0.20;0.20;;;;;;;;;;5112856;28;20246;-75
2024/01/03 08:53:02;;;;;;;0.10;0.10;;;;;;;;;;5122591;28;20245;-76
2024/01/03 08:55:30;;;;;;;0.10;0.10;;;;;;;;;;5112839;28;20202;-75
2024/01/03 08:57:58;;;;;;;0.20;0.20;;;;;;;;;;5125964;28;20388;-75
2024/01/03 09:00:24;;;;;;;0.10;0.10;;;;;;;;;;5116555;28;20244;-75
2024/01/03 09:02:50;;;;;;;0.10;0.10;;;;;;;;;;5126391;28;20270;-75
2024/01/03 09:05:18;;;;;;;0.10;0.10;;;;;;;;;;5116461;28;20222;-75
2024/01/03 09:07:44;;;;;;;0.10;0.10;;;;;;;;;;5126229;28;20202;-75
2024/01/03 09:10:11;;;;;;;0.13;0.13;;;;;;;;;;5116608;28;20194;-75
2024/01/03 09:12:38;;;;;;;0.10;0.10;;;;;;;;;;5126160;28;20198;-77
2024/01/03 09:15:05;;;;;;;0.20;0.20;;;;;;;;;;5127374;28;20295;-77
2024/01/03 09:17:32;;;;;;;0.13;0.13;;;;;;;;;;5115287;28;20264;-77
2024/01/03 09:19:58;;;;;;;0.10;0.10;;;;;;;;;;5127251;28;20429;-77
2024/01/03 09:22:25;;;;;;;0.10;0.10;;;;;;;;;;5115203;28;20589;-80
2024/01/03 09:24:51;;;;;;;0.10;0.10;;;;;;;;;;5126681;28;20212;-77
2024/01/03 09:27:18;;;;;;;0.10;0.10;;;;;;;;;;5115284;28;20388;-79
2024/01/03 09:29:48;;;;;;;0.10;0.10;;;;;;;;;;5126661;28;20206;-77
2024/01/03 09:32:16;;;;;;;0.10;0.10;;;;;;;;;;5114938;28;20242;-76
2024/01/03 09:34:42;;;;;;;0.10;0.10;;;;;;;;;;5126861;28;20457;-77
2024/01/03 09:37:10;;;;;;;2.20;2.10;;;;;;;;;;5114891;28;20248;-77
2024/01/03 09:39:36;;;;;;;0.10;0.10;;;;;;;;;;5126818;28;20513;-77
2024/01/03 09:42:03;;;;;;;0.10;0.10;;;;;;;;;;5115115;28;20242;-76
2024/01/03 09:44:30;;;;;;;0.10;0.10;;;;;;;;;;5126478;28;20227;-78
2024/01/03 09:46:58;;;;;;;0.10;0.10;;;;;;;;;;5114916;28;20252;-77
2024/01/03 09:49:24;;;;;;;0.10;0.10;;;;;;;;;;5126388;28;20197;-77
2024/01/03 09:51:52;;;;;;;0.10;0.10;;;;;;;;;;5114789;28;20267;-75
2024/01/03 09:54:19;;;;;;;0.10;0.10;;;;;;;;;;5126255;28;20389;-76
2024/01/03 09:56:47;;;;;;;0.10;0.10;;;;;;;;;;5114904;28;20243;-76
2024/01/03 09:59:17;;;;;;;0.10;0.10;;;;;;;;;;5125977;28;20274;-76
2024/01/03 10:01:53;;;;;;;0.10;0.10;;;;;;;;;;5114941;28;20244;-76
2024/01/03 10:04:21;;;;;;;0.10;0.10;;;;;;;;;;5125540;28;20255;-76
2024/01/03 10:06:53;;;;;;;0.10;0.10;;;;;;;;;;5114547;28;20239;-76
2024/01/03 10:09:20;;;;;;;0.10;0.10;;;;;;;;;;5124683;28;20206;-76
2024/01/03 10:11:46;;;;;;;0.10;0.10;;;;;;;;;;5114514;28;20260;-76
2024/01/03 10:14:17;;;;;;;0.10;0.10;;;;;;;;;;5125665;28;20265;-76
2024/01/03 10:16:44;;;;;;;0.10;0.10;;;;;;;;;;5114366;28;20358;-76
2024/01/03 10:19:11;;;;;;;0.10;0.10;;;;;;;;;;5125613;28;20202;-76
2024/01/03 10:21:41;;;;;;;0.10;0.10;;;;;;;;;;5114403;28;20584;-77
2024/01/03 10:24:08;;;;;;;0.10;0.10;;;;;;;;;;5125433;28;20263;-77
2024/01/03 10:26:34;;;;;;;0.10;0.10;;;;;;;;;;5114381;28;20256;-77
2024/01/03 10:29:11;;;;;;;0.10;0.10;;;;;;;;;;5125352;28;20205;-77
2024/01/03 10:31:37;;;;;;;0.10;0.10;;;;;;;;;;5114364;28;20500;-76
2024/01/03 10:34:04;;;;;;;0.10;0.10;;;;;;;;;;5125182;28;20199;-77
2024/01/03 10:36:32;;;;;;;0.10;0.10;;;;;;;;;;5114062;28;20243;-77
2024/01/03 10:39:00;;;;;;;0.10;0.10;;;;;;;;;;5125154;28;20209;-77
2024/01/03 10:41:27;;;;;;;0.10;0.10;;;;;;;;;;5114160;28;20310;-77
2024/01/03 10:43:55;;;;;;;0.10;0.10;;;;;;;;;;5124656;28;20222;-77
2024/01/03 10:46:22;;;;;;;0.10;0.10;;;;;;;;;;5113884;28;20306;-77
2024/01/03 10:48:48;;;;;;;0.10;0.10;;;;;;;;;;5124766;28;20339;-76
2024/01/03 10:51:15;;;;;;;0.10;0.10;;;;;;;;;;5114040;28;20449;-76
2024/01/03 10:53:43;;;;;;;0.13;0.13;;;;;;;;;;5124732;28;20241;-77
2024/01/03 10:56:11;;;;;;;0.10;0.10;;;;;;;;;;5114091;28;20297;-77
2024/01/03 10:58:39;;;;;;;0.10;0.10;;;;;;;;;;5124736;28;20242;-77
2024/01/03 11:01:11;;;;;;;0.10;0.10;;;;;;;;;;5113976;28;20240;-76
2024/01/03 11:03:39;;;;;;;0.10;0.10;;;;;;;;;;5124111;28;20232;-78
2024/01/03 11:06:09;;;;;;;0.10;0.10;;;;;;;;;;5113784;28;20318;-77
2024/01/03 11:08:40;;;;;;;0.10;0.10;;;;;;;;;;5124409;28;20276;-77
2024/01/03 11:11:08;;;;;;;0.20;0.20;;;;;;;;;;5113572;28;20496;-77
2024/01/03 11:13:39;;;;;;;0.10;0.10;;;;;;;;;;5124151;28;20238;-78
2024/01/03 11:16:05;;;;;;;0.10;0.10;;;;;;;;;;5113742;28;20303;-76
2024/01/03 11:18:53;;;;;;;0.10;0.10;;;;;;;;;;5124193;28;20242;-76
2024/01/03 11:21:39;;;;;;;8.63;6.30;;;;;;;;;;5113327;28;20247;-77
2024/01/03 11:24:25;;;;;;;0.10;0.10;;;;;;;;;;5123968;28;20235;-76
2024/01/03 11:27:04;;;;;;;0.10;0.10;;;;;;;;;;5112917;28;20238;-76
2024/01/03 11:29:44;;;;;;;0.10;0.10;;;;;;;;;;5124609;28;20212;-77
2024/01/03 11:32:11;;;;;;;0.10;0.10;;;;;;;;;;5112795;28;20555;-76
2024/01/03 11:34:38;;;;;;;0.10;0.10;;;;;;;;;;5124260;28;20202;-77
2024/01/03 11:37:05;;;;;;;0.10;0.10;;;;;;;;;;5112748;28;20287;-77
2024/01/03 11:39:35;;;;;;;0.10;0.10;;;;;;;;;;5124370;28;20246;-77
2024/01/03 11:42:02;;;;;;;0.10;0.10;;;;;;;;;;5112680;28;20304;-77
2024/01/03 11:44:28;;;;;;;0.10;0.10;;;;;;;;;;5123847;28;20227;-76
2024/01/03 11:46:59;;;;;;;0.10;0.10;;;;;;;;;;5112888;28;20264;-77
2024/01/03 11:49:25;;;;;;;0.10;0.10;;;;;;;;;;5124257;28;20225;-77
2024/01/03 11:51:52;;;;;;;0.10;0.10;;;;;;;;;;5112738;28;20257;-77
2024/01/03 11:54:18;;;;;;;0.10;0.10;;;;;;;;;;5124087;28;20234;-76
2024/01/03 11:56:45;;;;;;;0.10;0.10;;;;;;;;;;5112714;28;20256;-77
2024/01/03 11:59:12;;;;;;;0.10;0.10;;;;;;;;;;5123999;28;20430;-76
2024/01/03 12:01:38;;;;;;;0.10;0.10;;;;;;;;;;5113024;28;20296;-76
2024/01/03 12:04:09;;;;;;;0.10;0.10;;;;;;;;;;5123329;28;20255;-76
2024/01/03 12:06:36;;;;;;;0.10;0.10;;;;;;;;;;5112506;28;20266;-76
2024/01/03 12:09:03;;;;;;;0.10;0.10;;;;;;;;;;5123874;28;20205;-76
2024/01/03 12:11:30;;;;;;;0.10;0.10;;;;;;;;;;5112646;28;20233;-76
2024/01/03 12:13:56;;;;;;;0.17;0.17;;;;;;;;;;5123740;28;20229;-77
2024/01/03 12:16:23;;;;;;;0.10;0.10;;;;;;;;;;5112662;28;20268;-77
2024/01/03 12:18:49;;;;;;;0.10;0.10;;;;;;;;;;5123771;28;20234;-77
2024/01/03 12:21:17;;;;;;;0.10;0.10;;;;;;;;;;5112624;28;20240;-76
2024/01/03 12:23:54;;;;;;;0.10;0.10;;;;;;;;;;5123491;28;20229;-76
2024/01/03 12:26:20;;;;;;;0.10;0.10;;;;;;;;;;5112530;28;20244;-77
2024/01/03 12:28:46;;;;;;;0.10;0.10;;;;;;;;;;5123510;28;20381;-76
2024/01/03 12:31:17;;;;;;;0.10;0.10;;;;;;;;;;5113124;28;20246;-76
2024/01/03 12:33:43;;;;;;;0.10;0.10;;;;;;;;;;5127473;28;20270;-76
2024/01/03 12:36:10;;;;;;;0.10;0.10;;;;;;;;;;5116608;28;20350;-76
2024/01/03 12:38:37;;;;;;;0.10;0.10;;;;;;;;;;5127257;28;20204;-76
2024/01/03 12:41:04;;;;;;;0.10;0.10;;;;;;;;;;5116479;28;20296;-77
2024/01/03 12:43:30;;;;;;;0.20;0.20;;;;;;;;;;5127227;28;20255;-77
2024/01/03 12:45:57;;;;;;;0.10;0.10;;;;;;;;;;5116667;28;20247;-76
2024/01/03 12:48:23;;;;;;;0.10;0.10;;;;;;;;;;5127035;28;20205;-76
2024/01/03 12:50:52;;;;;;;0.10;0.10;;;;;;;;;;5116464;28;20246;-77
2024/01/03 12:53:19;;;;;;;0.10;0.10;;;;;;;;;;5126996;28;20206;-76
2024/01/03 12:55:47;;;;;;;0.10;0.10;;;;;;;;;;5116377;28;20312;-77
2024/01/03 12:58:13;;;;;;;0.10;0.10;;;;;;;;;;5126826;28;20268;-76
2024/01/03 13:00:40;;;;;;;0.10;0.10;;;;;;;;;;5116722;28;20279;-77
2024/01/03 13:03:06;;;;;;;0.10;0.10;;;;;;;;;;5126188;28;20224;-77
2024/01/03 13:05:33;;;;;;;0.10;0.10;;;;;;;;;;5116317;28;20532;-77
2024/01/03 13:07:59;;;;;;;0.10;0.10;;;;;;;;;;5126489;28;20195;-77
2024/01/03 13:10:27;;;;;;;0.10;0.10;;;;;;;;;;5116209;28;20228;-76
2024/01/03 13:12:55;;;;;;;0.10;0.10;;;;;;;;;;5126273;28;20269;-77
2024/01/03 13:15:22;;;;;;;0.10;0.10;;;;;;;;;;5116198;28;20227;-76
2024/01/03 13:17:48;;;;;;;0.10;0.10;;;;;;;;;;5126140;28;20212;-77
2024/01/03 13:20:15;;;;;;;0.10;0.10;;;;;;;;;;5116169;28;20275;-76
2024/01/03 13:22:40;;;;;;;0.10;0.10;;;;;;;;;;5126173;28;20237;-78
2024/01/03 13:25:07;;;;;;;0.10;0.10;;;;;;;;;;5126985;28;20232;-77
2024/01/03 13:27:33;;;;;;;0.10;0.10;;;;;;;;;;5115144;28;20286;-78
2024/01/03 13:30:01;;;;;;;0.10;0.10;;;;;;;;;;5126971;28;20225;-78
2024/01/03 13:32:27;;;;;;;0.10;0.10;;;;;;;;;;5115155;28;20240;-78
2024/01/03 13:34:54;;;;;;;0.10;0.10;;;;;;;;;;5126521;28;20395;-77
2024/01/03 13:37:20;;;;;;;0.10;0.10;;;;;;;;;;5115065;28;20238;-78
2024/01/03 13:39:46;;;;;;;0.10;0.10;;;;;;;;;;5126476;28;20272;-71
2024/01/03 13:42:13;;;;;;;0.10;0.10;;;;;;;;;;5114409;28;20316;-72
2024/01/03 13:44:39;;;;;;;0.10;0.10;;;;;;;;;;5126305;28;20231;-71
2024/01/03 13:47:08;;;;;;;0.10;0.10;;;;;;;;;;5114848;28;20493;-72
2024/01/03 13:49:34;;;;;;;0.10;0.10;;;;;;;;;;5126184;28;20232;-72
2024/01/03 13:52:01;;;;;;;0.13;0.13;;;;;;;;;;5114597;28;20241;-72
2024/01/03 13:54:27;;;;;;;0.10;0.10;;;;;;;;;;5126080;28;20271;-70
2024/01/03 13:56:53;;;;;;;0.10;0.10;;;;;;;;;;5114713;28;20250;-71
2024/01/03 13:59:20;;;;;;;0.10;0.10;;;;;;;;;;5126188;28;20224;-71
2024/01/03 14:01:46;;;;;;;0.10;0.10;;;;;;;;;;5114659;28;20579;-72
2024/01/03 14:04:14;;;;;;;0.10;0.10;;;;;;;;;;5125456;28;20227;-72
2024/01/03 14:06:41;;;;;;;0.10;0.10;;;;;;;;;;5114585;28;20248;-73
2024/01/03 14:09:07;;;;;;;0.10;0.10;;;;;;;;;;5125565;28;20203;-72
2024/01/03 14:11:34;;;;;;;0.10;0.10;;;;;;;;;;5114629;28;20573;-72
2024/01/03 14:14:01;;;;;;;0.10;0.10;;;;;;;;;;5125777;28;20198;-72
2024/01/03 14:16:27;;;;;;;0.10;0.10;;;;;;;;;;5114598;28;20246;-71
2024/01/03 14:18:54;;;;;;;0.10;0.10;;;;;;;;;;5125355;28;20278;-71
2024/01/03 14:21:22;;;;;;;0.17;0.17;;;;;;;;;;5114285;28;20244;-71
2024/01/03 14:23:48;;;;;;;0.10;0.10;;;;;;;;;;5125444;28;20209;-72
2024/01/03 14:26:14;;;;;;;0.10;0.10;;;;;;;;;;5114182;28;20243;-72
2024/01/03 14:28:41;;;;;;;0.10;0.10;;;;;;;;;;5125418;28;20205;-72
2024/01/03 14:31:08;;;;;;;0.10;0.10;;;;;;;;;;5114488;28;20238;-71
2024/01/03 14:33:34;;;;;;;0.10;0.10;;;;;;;;;;5125176;28;20205;-72
2024/01/03 14:36:00;;;;;;;0.10;0.10;;;;;;;;;;5114456;28;20248;-71
2024/01/03 14:38:29;;;;;;;0.10;0.10;;;;;;;;;;5125013;28;20204;-72
2024/01/03 14:40:55;;;;;;;0.10;0.10;;;;;;;;;;5114496;28;20241;-73
2024/01/03 14:43:31;;;;;;;0.10;0.10;;;;;;;;;;5124725;28;20212;-71